sensor_id;sensor_type;location;lat;lon;timestamp;P1;durP1;ratioP1;P2;durP2;ratioP2
68449;SDS011;67758;39.572;2.652;2023-09-07T00:00:03;9.55;;;3.38;;
68449;SDS011;67758;39.572;2.652;2023-09-07T00:02:31;6.80;;;2.75;;
68449;SDS011;67758;39.572;2.652;2023-09-07T00:04:56;10.25;;;2.70;;
68449;SDS011;67758;39.572;2.652;2023-09-07T00:07:22;9.93;;;3.10;;
68449;SDS011;67758;39.572;2.652;2023-09-07T00:09:48;10.93;;;2.70;;
68449;SDS011;67758;39.572;2.652;2023-09-07T00:12:14;7.75;;;2.70;;
68449;SDS011;67758;39.572;2.652;2023-09-07T00:14:39;9.80;;;2.93;;
68449;SDS011;67758;39.572;2.652;2023-09-07T00:17:05;8.82;;;3.28;;
68449;SDS011;67758;39.572;2.652;2023-09-07T00:19:31;10.35;;;2.70;;
68449;SDS011;67758;39.572;2.652;2023-09-07T00:21:59;7.95;;;2.80;;
68449;SDS011;67758;39.572;2.652;2023-09-07T00:24:24;6.63;;;2.50;;
68449;SDS011;67758;39.572;2.652;2023-09-07T00:26:50;8.05;;;2.47;;
68449;SDS011;67758;39.572;2.652;2023-09-07T00:29:17;8.18;;;2.90;;
68449;SDS011;67758;39.572;2.652;2023-09-07T00:31:42;10.55;;;3.25;;
68449;SDS011;67758;39.572;2.652;2023-09-07T00:34:08;10.10;;;2.73;;
68449;SDS011;67758;39.572;2.652;2023-09-07T00:36:33;10.15;;;3.03;;
68449;SDS011;67758;39.572;2.652;2023-09-07T00:38:59;8.57;;;3.20;;
68449;SDS011;67758;39.572;2.652;2023-09-07T00:41:25;11.23;;;2.85;;
68449;SDS011;67758;39.572;2.652;2023-09-07T00:43:51;7.23;;;2.97;;
68449;SDS011;67758;39.572;2.652;2023-09-07T00:46:16;12.63;;;3.73;;
68449;SDS011;67758;39.572;2.652;2023-09-07T00:48:42;9.30;;;3.13;;
68449;SDS011;67758;39.572;2.652;2023-09-07T00:51:08;9.00;;;2.50;;
68449;SDS011;67758;39.572;2.652;2023-09-07T00:53:34;10.65;;;2.90;;
68449;SDS011;67758;39.572;2.652;2023-09-07T00:55:59;9.45;;;3.17;;
68449;SDS011;67758;39.572;2.652;2023-09-07T00:58:25;7.57;;;2.90;;
68449;SDS011;67758;39.572;2.652;2023-09-07T01:00:51;7.72;;;3.15;;
68449;SDS011;67758;39.572;2.652;2023-09-07T01:03:17;7.63;;;2.97;;
68449;SDS011;67758;39.572;2.652;2023-09-07T01:05:59;8.73;;;3.25;;
68449;SDS011;67758;39.572;2.652;2023-09-07T01:08:31;9.05;;;2.58;;
68449;SDS011;67758;39.572;2.652;2023-09-07T01:11:01;10.05;;;3.33;;
68449;SDS011;67758;39.572;2.652;2023-09-07T01:13:38;7.57;;;2.70;;
68449;SDS011;67758;39.572;2.652;2023-09-07T01:16:04;6.82;;;2.40;;
68449;SDS011;67758;39.572;2.652;2023-09-07T01:18:30;8.70;;;3.30;;
68449;SDS011;67758;39.572;2.652;2023-09-07T01:20:56;8.07;;;3.10;;
68449;SDS011;67758;39.572;2.652;2023-09-07T01:23:23;9.05;;;2.97;;
68449;SDS011;67758;39.572;2.652;2023-09-07T01:25:49;6.80;;;3.45;;
68449;SDS011;67758;39.572;2.652;2023-09-07T01:28:16;8.07;;;3.05;;
68449;SDS011;67758;39.572;2.652;2023-09-07T01:30:41;7.18;;;2.80;;
68449;SDS011;67758;39.572;2.652;2023-09-07T01:33:07;11.27;;;2.93;;
68449;SDS011;67758;39.572;2.652;2023-09-07T01:35:33;11.15;;;2.67;;
68449;SDS011;67758;39.572;2.652;2023-09-07T01:38:01;9.00;;;3.50;;
68449;SDS011;67758;39.572;2.652;2023-09-07T01:40:27;11.15;;;3.00;;
68449;SDS011;67758;39.572;2.652;2023-09-07T01:42:53;8.38;;;3.22;;
68449;SDS011;67758;39.572;2.652;2023-09-07T01:45:18;8.25;;;3.05;;
68449;SDS011;67758;39.572;2.652;2023-09-07T01:47:44;8.70;;;3.03;;
68449;SDS011;67758;39.572;2.652;2023-09-07T01:50:10;14.73;;;3.38;;
68449;SDS011;67758;39.572;2.652;2023-09-07T01:52:36;11.60;;;3.33;;
68449;SDS011;67758;39.572;2.652;2023-09-07T01:55:02;13.10;;;3.33;;
68449;SDS011;67758;39.572;2.652;2023-09-07T01:57:27;10.23;;;3.10;;
68449;SDS011;67758;39.572;2.652;2023-09-07T01:59:54;8.73;;;3.38;;
68449;SDS011;67758;39.572;2.652;2023-09-07T02:02:20;8.50;;;3.50;;
68449;SDS011;67758;39.572;2.652;2023-09-07T02:04:45;8.40;;;3.10;;
68449;SDS011;67758;39.572;2.652;2023-09-07T02:07:12;10.55;;;3.40;;
68449;SDS011;67758;39.572;2.652;2023-09-07T02:09:38;9.05;;;3.25;;
68449;SDS011;67758;39.572;2.652;2023-09-07T02:12:04;8.87;;;3.27;;
68449;SDS011;67758;39.572;2.652;2023-09-07T02:14:30;7.25;;;2.70;;
68449;SDS011;67758;39.572;2.652;2023-09-07T02:16:56;8.55;;;3.28;;
68449;SDS011;67758;39.572;2.652;2023-09-07T02:19:21;7.57;;;3.43;;
68449;SDS011;67758;39.572;2.652;2023-09-07T02:21:48;8.30;;;3.33;;
68449;SDS011;67758;39.572;2.652;2023-09-07T02:24:15;8.35;;;3.20;;
68449;SDS011;67758;39.572;2.652;2023-09-07T02:26:40;12.27;;;3.60;;
68449;SDS011;67758;39.572;2.652;2023-09-07T02:29:10;9.18;;;3.33;;
68449;SDS011;67758;39.572;2.652;2023-09-07T02:31:37;9.43;;;3.10;;
68449;SDS011;67758;39.572;2.652;2023-09-07T02:34:02;6.43;;;2.93;;
68449;SDS011;67758;39.572;2.652;2023-09-07T02:36:28;8.43;;;3.17;;
68449;SDS011;67758;39.572;2.652;2023-09-07T02:38:54;9.85;;;3.30;;
68449;SDS011;67758;39.572;2.652;2023-09-07T02:41:20;8.65;;;3.70;;
68449;SDS011;67758;39.572;2.652;2023-09-07T02:43:45;9.30;;;3.63;;
68449;SDS011;67758;39.572;2.652;2023-09-07T02:46:11;9.30;;;3.38;;
68449;SDS011;67758;39.572;2.652;2023-09-07T02:48:37;8.20;;;3.50;;
68449;SDS011;67758;39.572;2.652;2023-09-07T02:51:02;10.35;;;3.60;;
68449;SDS011;67758;39.572;2.652;2023-09-07T02:53:28;7.70;;;3.40;;
68449;SDS011;67758;39.572;2.652;2023-09-07T02:55:54;10.10;;;3.97;;
68449;SDS011;67758;39.572;2.652;2023-09-07T02:58:22;12.77;;;3.53;;
68449;SDS011;67758;39.572;2.652;2023-09-07T03:00:48;9.55;;;3.90;;
68449;SDS011;67758;39.572;2.652;2023-09-07T03:03:14;10.17;;;3.30;;
68449;SDS011;67758;39.572;2.652;2023-09-07T03:05:41;9.20;;;3.50;;
68449;SDS011;67758;39.572;2.652;2023-09-07T03:08:07;8.65;;;3.25;;
68449;SDS011;67758;39.572;2.652;2023-09-07T03:10:34;8.80;;;3.50;;
68449;SDS011;67758;39.572;2.652;2023-09-07T03:13:00;8.68;;;3.25;;
68449;SDS011;67758;39.572;2.652;2023-09-07T03:15:26;8.13;;;3.70;;
68449;SDS011;67758;39.572;2.652;2023-09-07T03:17:52;8.95;;;3.40;;
68449;SDS011;67758;39.572;2.652;2023-09-07T03:20:18;11.25;;;4.15;;
68449;SDS011;67758;39.572;2.652;2023-09-07T03:22:44;8.10;;;3.43;;
68449;SDS011;67758;39.572;2.652;2023-09-07T03:25:10;7.45;;;4.13;;
68449;SDS011;67758;39.572;2.652;2023-09-07T03:27:36;10.25;;;3.72;;
68449;SDS011;67758;39.572;2.652;2023-09-07T03:30:04;14.93;;;3.85;;
68449;SDS011;67758;39.572;2.652;2023-09-07T03:32:31;12.38;;;3.67;;
68449;SDS011;67758;39.572;2.652;2023-09-07T03:34:58;9.30;;;3.70;;
68449;SDS011;67758;39.572;2.652;2023-09-07T03:37:27;11.00;;;3.60;;
68449;SDS011;67758;39.572;2.652;2023-09-07T03:39:53;7.45;;;3.45;;
68449;SDS011;67758;39.572;2.652;2023-09-07T03:42:20;11.38;;;3.25;;
68449;SDS011;67758;39.572;2.652;2023-09-07T03:44:45;7.87;;;3.30;;
68449;SDS011;67758;39.572;2.652;2023-09-07T03:47:13;8.33;;;3.40;;
68449;SDS011;67758;39.572;2.652;2023-09-07T03:49:39;11.27;;;3.55;;
68449;SDS011;67758;39.572;2.652;2023-09-07T03:52:05;9.95;;;3.72;;
68449;SDS011;67758;39.572;2.652;2023-09-07T03:54:31;8.43;;;3.87;;
68449;SDS011;67758;39.572;2.652;2023-09-07T03:56:57;8.65;;;3.30;;
68449;SDS011;67758;39.572;2.652;2023-09-07T03:59:22;8.48;;;3.10;;
68449;SDS011;67758;39.572;2.652;2023-09-07T04:01:48;8.37;;;3.10;;
68449;SDS011;67758;39.572;2.652;2023-09-07T04:04:14;10.38;;;3.40;;
68449;SDS011;67758;39.572;2.652;2023-09-07T04:06:40;11.23;;;3.88;;
68449;SDS011;67758;39.572;2.652;2023-09-07T04:09:06;8.33;;;3.60;;
68449;SDS011;67758;39.572;2.652;2023-09-07T04:11:31;10.07;;;3.33;;
68449;SDS011;67758;39.572;2.652;2023-09-07T04:13:57;8.43;;;3.10;;
68449;SDS011;67758;39.572;2.652;2023-09-07T04:16:23;9.73;;;3.35;;
68449;SDS011;67758;39.572;2.652;2023-09-07T04:18:48;6.73;;;2.90;;
68449;SDS011;67758;39.572;2.652;2023-09-07T04:21:14;8.47;;;3.47;;
68449;SDS011;67758;39.572;2.652;2023-09-07T04:23:39;9.05;;;3.65;;
68449;SDS011;67758;39.572;2.652;2023-09-07T04:26:09;11.27;;;3.37;;
68449;SDS011;67758;39.572;2.652;2023-09-07T04:28:36;9.77;;;3.50;;
68449;SDS011;67758;39.572;2.652;2023-09-07T04:31:02;7.88;;;3.50;;
68449;SDS011;67758;39.572;2.652;2023-09-07T04:33:32;7.32;;;3.20;;
68449;SDS011;67758;39.572;2.652;2023-09-07T04:36:11;9.90;;;3.30;;
68449;SDS011;67758;39.572;2.652;2023-09-07T04:38:38;10.52;;;3.55;;
68449;SDS011;67758;39.572;2.652;2023-09-07T04:43:33;10.32;;;3.65;;
68449;SDS011;67758;39.572;2.652;2023-09-07T04:45:58;7.50;;;3.13;;
68449;SDS011;67758;39.572;2.652;2023-09-07T04:48:24;7.88;;;3.08;;
68449;SDS011;67758;39.572;2.652;2023-09-07T04:50:57;8.30;;;3.37;;
68449;SDS011;67758;39.572;2.652;2023-09-07T04:53:30;9.15;;;3.58;;
68449;SDS011;67758;39.572;2.652;2023-09-07T04:55:57;10.30;;;3.47;;
68449;SDS011;67758;39.572;2.652;2023-09-07T04:58:23;11.57;;;3.25;;
68449;SDS011;67758;39.572;2.652;2023-09-07T05:00:49;11.52;;;3.40;;
68449;SDS011;67758;39.572;2.652;2023-09-07T05:03:14;7.90;;;3.30;;
68449;SDS011;67758;39.572;2.652;2023-09-07T05:05:43;11.52;;;3.85;;
68449;SDS011;67758;39.572;2.652;2023-09-07T05:08:09;13.13;;;3.43;;
68449;SDS011;67758;39.572;2.652;2023-09-07T05:10:36;7.70;;;3.03;;
68449;SDS011;67758;39.572;2.652;2023-09-07T05:13:03;8.85;;;3.50;;
68449;SDS011;67758;39.572;2.652;2023-09-07T05:15:28;10.77;;;3.42;;
68449;SDS011;67758;39.572;2.652;2023-09-07T05:17:54;9.77;;;3.05;;
68449;SDS011;67758;39.572;2.652;2023-09-07T05:20:20;8.68;;;3.30;;
68449;SDS011;67758;39.572;2.652;2023-09-07T05:22:46;12.07;;;3.30;;
68449;SDS011;67758;39.572;2.652;2023-09-07T05:25:12;8.80;;;3.33;;
68449;SDS011;67758;39.572;2.652;2023-09-07T05:27:38;10.90;;;3.88;;
68449;SDS011;67758;39.572;2.652;2023-09-07T05:30:04;11.07;;;3.80;;
68449;SDS011;67758;39.572;2.652;2023-09-07T05:32:32;13.57;;;3.55;;
68449;SDS011;67758;39.572;2.652;2023-09-07T05:34:57;11.17;;;3.83;;
68449;SDS011;67758;39.572;2.652;2023-09-07T05:37:23;9.93;;;3.45;;
68449;SDS011;67758;39.572;2.652;2023-09-07T05:39:49;11.73;;;3.77;;
68449;SDS011;67758;39.572;2.652;2023-09-07T05:42:14;13.68;;;4.40;;
68449;SDS011;67758;39.572;2.652;2023-09-07T05:44:40;10.40;;;3.60;;
68449;SDS011;67758;39.572;2.652;2023-09-07T05:47:06;11.25;;;3.80;;
68449;SDS011;67758;39.572;2.652;2023-09-07T05:49:32;9.53;;;3.63;;
68449;SDS011;67758;39.572;2.652;2023-09-07T05:51:57;8.40;;;3.30;;
68449;SDS011;67758;39.572;2.652;2023-09-07T05:54:23;11.73;;;4.20;;
68449;SDS011;67758;39.572;2.652;2023-09-07T05:56:49;8.68;;;3.80;;
68449;SDS011;67758;39.572;2.652;2023-09-07T05:59:14;12.20;;;3.80;;
68449;SDS011;67758;39.572;2.652;2023-09-07T06:01:40;10.80;;;3.37;;
68449;SDS011;67758;39.572;2.652;2023-09-07T06:04:06;12.00;;;3.38;;
68449;SDS011;67758;39.572;2.652;2023-09-07T06:06:32;9.55;;;3.70;;
68449;SDS011;67758;39.572;2.652;2023-09-07T06:08:58;10.40;;;3.77;;
68449;SDS011;67758;39.572;2.652;2023-09-07T06:11:24;10.23;;;3.70;;
68449;SDS011;67758;39.572;2.652;2023-09-07T06:13:50;11.35;;;3.42;;
68449;SDS011;67758;39.572;2.652;2023-09-07T06:16:16;12.40;;;3.47;;
68449;SDS011;67758;39.572;2.652;2023-09-07T06:18:41;10.93;;;3.30;;
68449;SDS011;67758;39.572;2.652;2023-09-07T06:21:07;8.98;;;2.88;;
68449;SDS011;67758;39.572;2.652;2023-09-07T06:23:33;11.87;;;3.40;;
68449;SDS011;67758;39.572;2.652;2023-09-07T06:25:59;12.65;;;3.95;;
68449;SDS011;67758;39.572;2.652;2023-09-07T06:28:26;11.30;;;3.70;;
68449;SDS011;67758;39.572;2.652;2023-09-07T06:30:52;9.23;;;2.85;;
68449;SDS011;67758;39.572;2.652;2023-09-07T06:33:18;10.35;;;3.38;;
68449;SDS011;67758;39.572;2.652;2023-09-07T06:35:44;11.73;;;3.55;;
68449;SDS011;67758;39.572;2.652;2023-09-07T06:38:09;23.47;;;3.90;;
68449;SDS011;67758;39.572;2.652;2023-09-07T06:40:35;10.43;;;3.37;;
68449;SDS011;67758;39.572;2.652;2023-09-07T06:43:00;12.52;;;3.25;;
68449;SDS011;67758;39.572;2.652;2023-09-07T06:45:32;8.83;;;2.80;;
68449;SDS011;67758;39.572;2.652;2023-09-07T06:47:59;11.48;;;3.45;;
68449;SDS011;67758;39.572;2.652;2023-09-07T06:50:25;8.63;;;3.10;;
68449;SDS011;67758;39.572;2.652;2023-09-07T06:52:50;6.67;;;2.73;;
68449;SDS011;67758;39.572;2.652;2023-09-07T06:55:16;9.93;;;3.40;;
68449;SDS011;67758;39.572;2.652;2023-09-07T06:57:42;10.95;;;3.40;;
68449;SDS011;67758;39.572;2.652;2023-09-07T07:00:07;8.17;;;3.53;;
68449;SDS011;67758;39.572;2.652;2023-09-07T07:02:34;9.00;;;2.55;;
68449;SDS011;67758;39.572;2.652;2023-09-07T07:04:59;8.05;;;2.85;;
68449;SDS011;67758;39.572;2.652;2023-09-07T07:07:25;14.05;;;3.38;;
68449;SDS011;67758;39.572;2.652;2023-09-07T07:09:51;9.70;;;3.00;;
68449;SDS011;67758;39.572;2.652;2023-09-07T07:12:17;9.30;;;3.30;;
68449;SDS011;67758;39.572;2.652;2023-09-07T07:14:44;12.60;;;3.42;;
68449;SDS011;67758;39.572;2.652;2023-09-07T07:17:09;9.85;;;2.95;;
68449;SDS011;67758;39.572;2.652;2023-09-07T07:19:35;10.57;;;3.30;;
68449;SDS011;67758;39.572;2.652;2023-09-07T07:22:01;12.03;;;3.57;;
68449;SDS011;67758;39.572;2.652;2023-09-07T07:24:26;16.92;;;3.33;;
68449;SDS011;67758;39.572;2.652;2023-09-07T07:26:52;10.87;;;3.20;;
68449;SDS011;67758;39.572;2.652;2023-09-07T07:29:17;11.50;;;3.30;;
68449;SDS011;67758;39.572;2.652;2023-09-07T07:31:43;14.55;;;2.92;;
68449;SDS011;67758;39.572;2.652;2023-09-07T07:34:09;9.27;;;3.30;;
68449;SDS011;67758;39.572;2.652;2023-09-07T07:36:35;9.60;;;3.08;;
68449;SDS011;67758;39.572;2.652;2023-09-07T07:39:01;11.80;;;3.17;;
68449;SDS011;67758;39.572;2.652;2023-09-07T07:41:28;11.35;;;3.17;;
68449;SDS011;67758;39.572;2.652;2023-09-07T07:43:54;8.90;;;2.78;;
68449;SDS011;67758;39.572;2.652;2023-09-07T07:46:20;8.55;;;3.15;;
68449;SDS011;67758;39.572;2.652;2023-09-07T07:48:45;10.37;;;3.10;;
68449;SDS011;67758;39.572;2.652;2023-09-07T07:51:11;10.27;;;2.80;;
68449;SDS011;67758;39.572;2.652;2023-09-07T07:53:36;11.57;;;2.85;;
68449;SDS011;67758;39.572;2.652;2023-09-07T07:56:02;12.60;;;2.90;;
68449;SDS011;67758;39.572;2.652;2023-09-07T07:58:28;11.63;;;3.28;;
68449;SDS011;67758;39.572;2.652;2023-09-07T08:00:54;10.13;;;3.03;;
68449;SDS011;67758;39.572;2.652;2023-09-07T08:03:23;9.70;;;2.60;;
68449;SDS011;67758;39.572;2.652;2023-09-07T08:05:48;14.25;;;3.03;;
68449;SDS011;67758;39.572;2.652;2023-09-07T08:08:14;8.67;;;2.23;;
68449;SDS011;67758;39.572;2.652;2023-09-07T08:10:40;12.95;;;3.25;;
68449;SDS011;67758;39.572;2.652;2023-09-07T08:13:07;6.30;;;2.53;;
68449;SDS011;67758;39.572;2.652;2023-09-07T08:15:32;13.38;;;3.47;;
68449;SDS011;67758;39.572;2.652;2023-09-07T08:17:59;13.55;;;3.15;;
68449;SDS011;67758;39.572;2.652;2023-09-07T08:20:25;23.90;;;3.67;;
68449;SDS011;67758;39.572;2.652;2023-09-07T08:22:51;13.47;;;3.17;;
68449;SDS011;67758;39.572;2.652;2023-09-07T08:25:18;10.02;;;2.63;;
68449;SDS011;67758;39.572;2.652;2023-09-07T08:27:44;8.13;;;2.67;;
68449;SDS011;67758;39.572;2.652;2023-09-07T08:30:15;6.95;;;2.33;;
68449;SDS011;67758;39.572;2.652;2023-09-07T08:32:43;7.10;;;2.72;;
68449;SDS011;67758;39.572;2.652;2023-09-07T08:35:12;8.07;;;2.90;;
68449;SDS011;67758;39.572;2.652;2023-09-07T08:37:39;17.27;;;3.50;;
68449;SDS011;67758;39.572;2.652;2023-09-07T08:40:05;12.00;;;2.75;;
68449;SDS011;67758;39.572;2.652;2023-09-07T08:42:37;11.95;;;2.90;;
68449;SDS011;67758;39.572;2.652;2023-09-07T08:45:04;13.15;;;3.25;;
68449;SDS011;67758;39.572;2.652;2023-09-07T08:47:34;10.67;;;3.43;;
68449;SDS011;67758;39.572;2.652;2023-09-07T08:50:01;8.18;;;2.53;;
68449;SDS011;67758;39.572;2.652;2023-09-07T08:52:27;10.73;;;3.00;;
68449;SDS011;67758;39.572;2.652;2023-09-07T08:54:53;10.35;;;2.70;;
68449;SDS011;67758;39.572;2.652;2023-09-07T08:57:23;21.60;;;3.90;;
68449;SDS011;67758;39.572;2.652;2023-09-07T08:59:50;13.23;;;3.53;;
68449;SDS011;67758;39.572;2.652;2023-09-07T09:02:15;9.40;;;2.90;;
68449;SDS011;67758;39.572;2.652;2023-09-07T09:04:41;8.88;;;3.00;;
68449;SDS011;67758;39.572;2.652;2023-09-07T09:07:07;7.57;;;2.93;;
68449;SDS011;67758;39.572;2.652;2023-09-07T09:09:33;11.25;;;3.25;;
68449;SDS011;67758;39.572;2.652;2023-09-07T09:12:11;6.87;;;2.70;;
68449;SDS011;67758;39.572;2.652;2023-09-07T09:14:39;10.55;;;2.88;;
68449;SDS011;67758;39.572;2.652;2023-09-07T09:17:11;10.02;;;3.13;;
68449;SDS011;67758;39.572;2.652;2023-09-07T09:19:38;13.20;;;3.60;;
68449;SDS011;67758;39.572;2.652;2023-09-07T09:22:04;8.70;;;2.67;;
68449;SDS011;67758;39.572;2.652;2023-09-07T09:24:32;10.18;;;3.35;;
68449;SDS011;67758;39.572;2.652;2023-09-07T09:26:59;9.85;;;2.85;;
68449;SDS011;67758;39.572;2.652;2023-09-07T09:29:24;10.87;;;2.57;;
68449;SDS011;67758;39.572;2.652;2023-09-07T09:31:53;10.45;;;2.80;;
68449;SDS011;67758;39.572;2.652;2023-09-07T09:34:20;10.03;;;2.73;;
68449;SDS011;67758;39.572;2.652;2023-09-07T09:36:46;15.20;;;3.42;;
68449;SDS011;67758;39.572;2.652;2023-09-07T09:39:21;11.52;;;3.05;;
68449;SDS011;67758;39.572;2.652;2023-09-07T09:41:49;10.55;;;3.13;;
68449;SDS011;67758;39.572;2.652;2023-09-07T09:44:16;7.32;;;2.70;;
68449;SDS011;67758;39.572;2.652;2023-09-07T09:46:42;9.80;;;3.03;;
68449;SDS011;67758;39.572;2.652;2023-09-07T09:49:09;7.93;;;2.88;;
68449;SDS011;67758;39.572;2.652;2023-09-07T09:51:38;9.15;;;2.50;;
68449;SDS011;67758;39.572;2.652;2023-09-07T09:54:04;7.70;;;2.73;;
68449;SDS011;67758;39.572;2.652;2023-09-07T09:56:31;7.45;;;2.70;;
68449;SDS011;67758;39.572;2.652;2023-09-07T09:58:57;7.75;;;2.80;;
68449;SDS011;67758;39.572;2.652;2023-09-07T10:01:22;6.63;;;2.57;;
68449;SDS011;67758;39.572;2.652;2023-09-07T10:03:49;10.50;;;2.83;;
68449;SDS011;67758;39.572;2.652;2023-09-07T10:06:20;7.97;;;2.83;;
68449;SDS011;67758;39.572;2.652;2023-09-07T10:08:52;10.45;;;2.70;;
68449;SDS011;67758;39.572;2.652;2023-09-07T10:11:26;7.90;;;2.90;;
68449;SDS011;67758;39.572;2.652;2023-09-07T10:13:57;8.38;;;2.67;;
68449;SDS011;67758;39.572;2.652;2023-09-07T10:16:23;11.25;;;2.78;;
68449;SDS011;67758;39.572;2.652;2023-09-07T10:18:49;8.10;;;3.03;;
68449;SDS011;67758;39.572;2.652;2023-09-07T10:21:15;10.20;;;2.80;;
68449;SDS011;67758;39.572;2.652;2023-09-07T10:23:41;7.30;;;3.30;;
68449;SDS011;67758;39.572;2.652;2023-09-07T10:26:17;11.93;;;3.70;;
68449;SDS011;67758;39.572;2.652;2023-09-07T10:28:46;7.88;;;3.17;;
68449;SDS011;67758;39.572;2.652;2023-09-07T10:31:16;9.02;;;3.17;;
68449;SDS011;67758;39.572;2.652;2023-09-07T10:33:43;8.73;;;3.33;;
68449;SDS011;67758;39.572;2.652;2023-09-07T10:36:19;8.05;;;3.05;;
68449;SDS011;67758;39.572;2.652;2023-09-07T10:38:52;8.63;;;4.00;;
68449;SDS011;67758;39.572;2.652;2023-09-07T10:41:19;9.80;;;3.10;;
68449;SDS011;67758;39.572;2.652;2023-09-07T10:43:52;19.07;;;4.07;;
68449;SDS011;67758;39.572;2.652;2023-09-07T10:46:19;9.57;;;3.55;;
68449;SDS011;67758;39.572;2.652;2023-09-07T10:48:46;10.95;;;4.05;;
68449;SDS011;67758;39.572;2.652;2023-09-07T10:51:15;9.30;;;3.75;;
68449;SDS011;67758;39.572;2.652;2023-09-07T10:53:40;10.07;;;5.03;;
68449;SDS011;67758;39.572;2.652;2023-09-07T10:56:11;8.75;;;4.47;;
68449;SDS011;67758;39.572;2.652;2023-09-07T10:58:40;7.25;;;4.65;;
68449;SDS011;67758;39.572;2.652;2023-09-07T11:01:07;7.38;;;4.63;;
68449;SDS011;67758;39.572;2.652;2023-09-07T11:03:34;9.13;;;5.20;;
68449;SDS011;67758;39.572;2.652;2023-09-07T11:06:08;8.45;;;4.97;;
68449;SDS011;67758;39.572;2.652;2023-09-07T11:08:36;10.80;;;5.32;;
68449;SDS011;67758;39.572;2.652;2023-09-07T11:11:02;11.85;;;6.00;;
68449;SDS011;67758;39.572;2.652;2023-09-07T11:13:31;8.52;;;5.45;;
68449;SDS011;67758;39.572;2.652;2023-09-07T11:15:57;7.97;;;4.93;;
68449;SDS011;67758;39.572;2.652;2023-09-07T11:21:19;9.98;;;5.47;;
68449;SDS011;67758;39.572;2.652;2023-09-07T11:23:44;9.13;;;5.50;;
68449;SDS011;67758;39.572;2.652;2023-09-07T11:26:20;9.90;;;6.00;;
68449;SDS011;67758;39.572;2.652;2023-09-07T11:29:06;12.32;;;5.22;;
68449;SDS011;67758;39.572;2.652;2023-09-07T11:31:42;10.73;;;5.93;;
68449;SDS011;67758;39.572;2.652;2023-09-07T11:34:18;13.23;;;7.20;;
68449;SDS011;67758;39.572;2.652;2023-09-07T11:37:03;13.27;;;6.47;;
68449;SDS011;67758;39.572;2.652;2023-09-07T11:39:34;11.20;;;5.67;;
68449;SDS011;67758;39.572;2.652;2023-09-07T11:42:08;8.70;;;5.10;;
68449;SDS011;67758;39.572;2.652;2023-09-07T11:44:34;9.55;;;5.18;;
68449;SDS011;67758;39.572;2.652;2023-09-07T11:47:00;8.60;;;4.68;;
68449;SDS011;67758;39.572;2.652;2023-09-07T11:49:26;12.00;;;5.70;;
68449;SDS011;67758;39.572;2.652;2023-09-07T11:51:52;9.82;;;5.43;;
68449;SDS011;67758;39.572;2.652;2023-09-07T11:54:17;9.10;;;5.47;;
68449;SDS011;67758;39.572;2.652;2023-09-07T11:56:44;10.02;;;5.10;;
68449;SDS011;67758;39.572;2.652;2023-09-07T11:59:11;10.55;;;5.32;;
68449;SDS011;67758;39.572;2.652;2023-09-07T12:01:36;7.97;;;5.03;;
68449;SDS011;67758;39.572;2.652;2023-09-07T12:04:05;8.80;;;5.28;;
68449;SDS011;67758;39.572;2.652;2023-09-07T12:06:31;8.45;;;5.18;;
68449;SDS011;67758;39.572;2.652;2023-09-07T12:09:01;9.60;;;5.25;;
68449;SDS011;67758;39.572;2.652;2023-09-07T12:11:32;13.93;;;7.20;;
68449;SDS011;67758;39.572;2.652;2023-09-07T12:13:58;17.60;;;10.35;;
68449;SDS011;67758;39.572;2.652;2023-09-07T12:16:27;14.88;;;6.90;;
68449;SDS011;67758;39.572;2.652;2023-09-07T12:18:53;8.60;;;5.97;;
68449;SDS011;67758;39.572;2.652;2023-09-07T12:21:19;14.73;;;5.78;;
68449;SDS011;67758;39.572;2.652;2023-09-07T12:23:45;12.43;;;6.27;;
68449;SDS011;67758;39.572;2.652;2023-09-07T12:26:14;11.02;;;6.20;;
68449;SDS011;67758;39.572;2.652;2023-09-07T12:36:34;12.10;;;6.55;;
68449;SDS011;67758;39.572;2.652;2023-09-07T12:39:44;16.88;;;8.00;;
68449;SDS011;67758;39.572;2.652;2023-09-07T12:42:47;9.57;;;5.88;;
68449;SDS011;67758;39.572;2.652;2023-09-07T12:46:28;9.30;;;4.32;;
68449;SDS011;67758;39.572;2.652;2023-09-07T12:48:53;7.17;;;4.33;;
68449;SDS011;67758;39.572;2.652;2023-09-07T12:51:19;9.63;;;5.65;;
68449;SDS011;67758;39.572;2.652;2023-09-07T12:53:45;8.45;;;4.20;;
68449;SDS011;67758;39.572;2.652;2023-09-07T12:56:10;11.07;;;4.53;;
68449;SDS011;67758;39.572;2.652;2023-09-07T12:58:36;12.88;;;6.22;;
68449;SDS011;67758;39.572;2.652;2023-09-07T13:01:02;7.10;;;3.83;;
68449;SDS011;67758;39.572;2.652;2023-09-07T13:03:29;8.35;;;4.18;;
68449;SDS011;67758;39.572;2.652;2023-09-07T13:05:54;8.65;;;4.30;;
68449;SDS011;67758;39.572;2.652;2023-09-07T13:08:20;9.68;;;3.42;;
68449;SDS011;67758;39.572;2.652;2023-09-07T13:10:45;9.53;;;4.20;;
68449;SDS011;67758;39.572;2.652;2023-09-07T13:13:11;9.30;;;4.28;;
68449;SDS011;67758;39.572;2.652;2023-09-07T13:15:37;8.47;;;3.43;;
68449;SDS011;67758;39.572;2.652;2023-09-07T13:18:02;9.63;;;4.03;;
68449;SDS011;67758;39.572;2.652;2023-09-07T13:20:28;8.40;;;4.65;;
68449;SDS011;67758;39.572;2.652;2023-09-07T13:22:54;8.55;;;3.80;;
68449;SDS011;67758;39.572;2.652;2023-09-07T13:25:20;13.07;;;4.90;;
68449;SDS011;67758;39.572;2.652;2023-09-07T13:27:48;12.02;;;4.80;;
68449;SDS011;67758;39.572;2.652;2023-09-07T13:30:14;9.10;;;4.00;;
68449;SDS011;67758;39.572;2.652;2023-09-07T13:32:40;11.30;;;4.83;;
68449;SDS011;67758;39.572;2.652;2023-09-07T13:35:06;10.77;;;3.80;;
68449;SDS011;67758;39.572;2.652;2023-09-07T13:37:32;12.15;;;3.83;;
68449;SDS011;67758;39.572;2.652;2023-09-07T13:39:59;9.30;;;3.73;;
68449;SDS011;67758;39.572;2.652;2023-09-07T13:42:28;9.77;;;4.00;;
68449;SDS011;67758;39.572;2.652;2023-09-07T13:44:54;8.48;;;3.55;;
68449;SDS011;67758;39.572;2.652;2023-09-07T13:47:21;10.90;;;4.35;;
68449;SDS011;67758;39.572;2.652;2023-09-07T13:49:47;10.38;;;3.55;;
68449;SDS011;67758;39.572;2.652;2023-09-07T13:52:12;9.18;;;3.45;;
68449;SDS011;67758;39.572;2.652;2023-09-07T13:54:41;8.25;;;3.40;;
68449;SDS011;67758;39.572;2.652;2023-09-07T13:57:07;8.52;;;3.83;;
68449;SDS011;67758;39.572;2.652;2023-09-07T13:59:33;10.07;;;3.63;;
68449;SDS011;67758;39.572;2.652;2023-09-07T14:02:00;9.98;;;3.78;;
68449;SDS011;67758;39.572;2.652;2023-09-07T14:04:26;7.85;;;3.92;;
68449;SDS011;67758;39.572;2.652;2023-09-07T14:06:52;9.18;;;3.17;;
68449;SDS011;67758;39.572;2.652;2023-09-07T14:09:18;8.10;;;3.40;;
68449;SDS011;67758;39.572;2.652;2023-09-07T14:11:47;17.88;;;7.22;;
68449;SDS011;67758;39.572;2.652;2023-09-07T14:14:13;9.45;;;3.50;;
68449;SDS011;67758;39.572;2.652;2023-09-07T14:16:40;6.85;;;3.13;;
68449;SDS011;67758;39.572;2.652;2023-09-07T14:19:06;7.45;;;3.30;;
68449;SDS011;67758;39.572;2.652;2023-09-07T14:21:32;9.73;;;3.63;;
68449;SDS011;67758;39.572;2.652;2023-09-07T14:23:57;8.18;;;3.90;;
68449;SDS011;67758;39.572;2.652;2023-09-07T14:26:23;9.57;;;3.90;;
68449;SDS011;67758;39.572;2.652;2023-09-07T14:28:49;6.53;;;3.67;;
68449;SDS011;67758;39.572;2.652;2023-09-07T14:31:15;7.88;;;4.18;;
68449;SDS011;67758;39.572;2.652;2023-09-07T14:33:41;8.20;;;3.65;;
68449;SDS011;67758;39.572;2.652;2023-09-07T14:36:08;9.88;;;4.07;;
68449;SDS011;67758;39.572;2.652;2023-09-07T14:38:34;11.10;;;4.67;;
68449;SDS011;67758;39.572;2.652;2023-09-07T14:41:10;8.10;;;4.05;;
68449;SDS011;67758;39.572;2.652;2023-09-07T14:43:47;10.25;;;4.30;;
68449;SDS011;67758;39.572;2.652;2023-09-07T14:46:13;13.07;;;5.10;;
68449;SDS011;67758;39.572;2.652;2023-09-07T14:48:40;8.90;;;4.25;;
68449;SDS011;67758;39.572;2.652;2023-09-07T14:51:06;9.27;;;4.50;;
68449;SDS011;67758;39.572;2.652;2023-09-07T14:53:32;8.55;;;4.65;;
68449;SDS011;67758;39.572;2.652;2023-09-07T14:55:57;8.63;;;4.50;;